sensor_id;sensor_type;location;lat;lon;timestamp;temperature;humidity
34829;DHT22;21042;47.620;12.188;2023-02-13T00:01:57;-0.30;99.90
34829;DHT22;21042;47.620;12.188;2023-02-13T00:04:24;-0.30;99.90
34829;DHT22;21042;47.620;12.188;2023-02-13T00:06:50;-0.30;99.90
34829;DHT22;21042;47.620;12.188;2023-02-13T00:09:17;-0.40;99.90
34829;DHT22;21042;47.620;12.188;2023-02-13T00:11:44;-0.30;99.90
34829;DHT22;21042;47.620;12.188;2023-02-13T00:14:10;-0.40;99.90
34829;DHT22;21042;47.620;12.188;2023-02-13T00:16:38;-0.40;99.90
34829;DHT22;21042;47.620;12.188;2023-02-13T00:19:05;-0.40;99.90
34829;DHT22;21042;47.620;12.188;2023-02-13T00:21:31;-0.40;99.90
34829;DHT22;21042;47.620;12.188;2023-02-13T00:23:58;-0.50;99.90
34829;DHT22;21042;47.620;12.188;2023-02-13T00:26:25;-0.40;99.90
34829;DHT22;21042;47.620;12.188;2023-02-13T00:28:51;-0.40;99.90
34829;DHT22;21042;47.620;12.188;2023-02-13T00:31:20;-0.40;99.90
34829;DHT22;21042;47.620;12.188;2023-02-13T00:33:48;-0.40;99.90
34829;DHT22;21042;47.620;12.188;2023-02-13T00:36:18;-0.50;99.90
34829;DHT22;21042;47.620;12.188;2023-02-13T00:38:45;-0.50;99.90
34829;DHT22;21042;47.620;12.188;2023-02-13T00:41:12;-0.50;99.90
34829;DHT22;21042;47.620;12.188;2023-02-13T00:43:39;-0.40;99.90
34829;DHT22;21042;47.620;12.188;2023-02-13T00:46:06;-0.40;99.90
34829;DHT22;21042;47.620;12.188;2023-02-13T00:48:33;-0.50;99.90
34829;DHT22;21042;47.620;12.188;2023-02-13T00:51:01;-0.50;99.90
34829;DHT22;21042;47.620;12.188;2023-02-13T00:53:29;-0.50;99.90
34829;DHT22;21042;47.620;12.188;2023-02-13T00:55:56;-0.60;99.90
34829;DHT22;21042;47.620;12.188;2023-02-13T00:58:23;-0.60;99.90
34829;DHT22;21042;47.620;12.188;2023-02-13T01:00:50;-0.60;99.90
34829;DHT22;21042;47.620;12.188;2023-02-13T01:03:18;-0.70;99.90
34829;DHT22;21042;47.620;12.188;2023-02-13T01:05:46;-0.70;99.90
34829;DHT22;21042;47.620;12.188;2023-02-13T01:08:14;-0.70;99.90
34829;DHT22;21042;47.620;12.188;2023-02-13T01:10:43;-0.70;99.90
34829;DHT22;21042;47.620;12.188;2023-02-13T01:13:13;-0.80;99.90
34829;DHT22;21042;47.620;12.188;2023-02-13T01:15:41;-0.80;99.90
34829;DHT22;21042;47.620;12.188;2023-02-13T01:18:09;-0.80;99.90
34829;DHT22;21042;47.620;12.188;2023-02-13T01:20:37;-0.70;99.90
34829;DHT22;21042;47.620;12.188;2023-02-13T01:23:04;-0.80;99.90
34829;DHT22;21042;47.620;12.188;2023-02-13T01:25:31;-0.80;99.90
34829;DHT22;21042;47.620;12.188;2023-02-13T01:27:58;-0.80;99.90
34829;DHT22;21042;47.620;12.188;2023-02-13T01:30:24;-0.80;99.90
34829;DHT22;21042;47.620;12.188;2023-02-13T01:32:53;-0.80;99.90
34829;DHT22;21042;47.620;12.188;2023-02-13T01:35:20;-0.90;99.90
34829;DHT22;21042;47.620;12.188;2023-02-13T01:37:47;-0.80;99.90
34829;DHT22;21042;47.620;12.188;2023-02-13T01:40:14;-0.80;99.90
34829;DHT22;21042;47.620;12.188;2023-02-13T01:42:42;-0.80;99.90
34829;DHT22;21042;47.620;12.188;2023-02-13T01:45:18;-0.80;99.90
34829;DHT22;21042;47.620;12.188;2023-02-13T01:48:04;-0.80;99.90
34829;DHT22;21042;47.620;12.188;2023-02-13T01:50:36;-0.70;99.90
34829;DHT22;21042;47.620;12.188;2023-02-13T01:53:13;-0.70;99.90
34829;DHT22;21042;47.620;12.188;2023-02-13T01:56:08;-0.70;99.90
34829;DHT22;21042;47.620;12.188;2023-02-13T01:58:36;-0.80;99.90
34829;DHT22;21042;47.620;12.188;2023-02-13T02:01:05;-0.80;99.90
34829;DHT22;21042;47.620;12.188;2023-02-13T02:03:59;-0.90;99.90
34829;DHT22;21042;47.620;12.188;2023-02-13T02:06:33;-0.90;99.90
34829;DHT22;21042;47.620;12.188;2023-02-13T02:09:06;-0.90;99.90
34829;DHT22;21042;47.620;12.188;2023-02-13T02:12:26;-0.90;99.90
34829;DHT22;21042;47.620;12.188;2023-02-13T02:14:57;-0.90;99.90
34829;DHT22;21042;47.620;12.188;2023-02-13T02:17:29;-1.00;99.90
34829;DHT22;21042;47.620;12.188;2023-02-13T02:20:14;-1.00;99.90
34829;DHT22;21042;47.620;12.188;2023-02-13T02:31:39;-1.10;99.90
34829;DHT22;21042;47.620;12.188;2023-02-13T02:34:36;-1.10;99.90
34829;DHT22;21042;47.620;12.188;2023-02-13T02:37:43;-1.20;99.90
34829;DHT22;21042;47.620;12.188;2023-02-13T02:40:39;-1.30;99.90
34829;DHT22;21042;47.620;12.188;2023-02-13T02:43:23;-1.30;99.90
34829;DHT22;21042;47.620;12.188;2023-02-13T02:46:01;-1.30;99.90
34829;DHT22;21042;47.620;12.188;2023-02-13T02:54:39;-1.30;99.90
34829;DHT22;21042;47.620;12.188;2023-02-13T02:57:31;-1.30;99.90
34829;DHT22;21042;47.620;12.188;2023-02-13T03:00:21;-1.40;99.90
34829;DHT22;21042;47.620;12.188;2023-02-13T03:03:36;-1.40;99.90
34829;DHT22;21042;47.620;12.188;2023-02-13T03:06:34;-1.40;99.90
34829;DHT22;21042;47.620;12.188;2023-02-13T03:09:05;-1.30;99.90
34829;DHT22;21042;47.620;12.188;2023-02-13T03:11:54;-1.30;99.90
34829;DHT22;21042;47.620;12.188;2023-02-13T03:14:40;-1.30;99.90
34829;DHT22;21042;47.620;12.188;2023-02-13T03:17:11;-1.40;99.90
34829;DHT22;21042;47.620;12.188;2023-02-13T03:20:00;-1.30;99.90
34829;DHT22;21042;47.620;12.188;2023-02-13T03:26:06;-1.30;99.90
34829;DHT22;21042;47.620;12.188;2023-02-13T03:28:51;-1.50;99.90
34829;DHT22;21042;47.620;12.188;2023-02-13T03:31:53;-1.50;99.90
34829;DHT22;21042;47.620;12.188;2023-02-13T03:34:30;-1.60;99.90
34829;DHT22;21042;47.620;12.188;2023-02-13T03:37:28;-1.60;99.90
34829;DHT22;21042;47.620;12.188;2023-02-13T03:40:20;-1.60;99.90
34829;DHT22;21042;47.620;12.188;2023-02-13T03:43:12;-1.60;99.90
34829;DHT22;21042;47.620;12.188;2023-02-13T03:45:44;-1.60;99.90
34829;DHT22;21042;47.620;12.188;2023-02-13T03:48:26;-1.60;99.90
34829;DHT22;21042;47.620;12.188;2023-02-13T03:51:20;-1.60;99.90
34829;DHT22;21042;47.620;12.188;2023-02-13T03:53:52;-1.60;99.90
34829;DHT22;21042;47.620;12.188;2023-02-13T03:56:22;-1.60;99.90
34829;DHT22;21042;47.620;12.188;2023-02-13T03:59:15;-1.50;99.90
34829;DHT22;21042;47.620;12.188;2023-02-13T04:04:39;-1.60;99.90
34829;DHT22;21042;47.620;12.188;2023-02-13T04:07:13;-1.60;99.90
34829;DHT22;21042;47.620;12.188;2023-02-13T04:09:57;-1.60;99.90
34829;DHT22;21042;47.620;12.188;2023-02-13T04:12:37;-1.60;99.90
34829;DHT22;21042;47.620;12.188;2023-02-13T04:15:26;-1.50;99.90
34829;DHT22;21042;47.620;12.188;2023-02-13T04:18:24;-1.60;99.90
34829;DHT22;21042;47.620;12.188;2023-02-13T04:20:49;-1.60;99.90
34829;DHT22;21042;47.620;12.188;2023-02-13T04:23:16;-1.60;99.90
34829;DHT22;21042;47.620;12.188;2023-02-13T04:25:46;-1.60;99.90
34829;DHT22;21042;47.620;12.188;2023-02-13T04:28:14;-1.60;99.90
34829;DHT22;21042;47.620;12.188;2023-02-13T04:30:41;-1.60;99.90
34829;DHT22;21042;47.620;12.188;2023-02-13T04:33:08;-1.60;99.90
34829;DHT22;21042;47.620;12.188;2023-02-13T04:35:35;-1.60;99.90
34829;DHT22;21042;47.620;12.188;2023-02-13T04:38:01;-1.60;99.90
34829;DHT22;21042;47.620;12.188;2023-02-13T04:40:28;-1.60;99.90
34829;DHT22;21042;47.620;12.188;2023-02-13T04:42:55;-1.60;99.90
34829;DHT22;21042;47.620;12.188;2023-02-13T04:45:22;-1.60;99.90
34829;DHT22;21042;47.620;12.188;2023-02-13T04:47:53;-1.50;99.90
34829;DHT22;21042;47.620;12.188;2023-02-13T04:50:20;-1.60;99.90
34829;DHT22;21042;47.620;12.188;2023-02-13T04:52:49;-1.60;99.90
34829;DHT22;21042;47.620;12.188;2023-02-13T04:55:18;-1.60;99.90
34829;DHT22;21042;47.620;12.188;2023-02-13T04:57:44;-1.60;99.90
34829;DHT22;21042;47.620;12.188;2023-02-13T05:00:11;-1.60;99.90
34829;DHT22;21042;47.620;12.188;2023-02-13T05:02:38;-1.70;99.90
34829;DHT22;21042;47.620;12.188;2023-02-13T05:05:15;-1.70;99.90
34829;DHT22;21042;47.620;12.188;2023-02-13T05:07:42;-1.80;99.90
34829;DHT22;21042;47.620;12.188;2023-02-13T05:10:10;-1.80;99.90
34829;DHT22;21042;47.620;12.188;2023-02-13T05:12:37;-1.80;99.90
34829;DHT22;21042;47.620;12.188;2023-02-13T05:15:05;-1.70;99.90
34829;DHT22;21042;47.620;12.188;2023-02-13T05:17:32;-1.70;99.90
34829;DHT22;21042;47.620;12.188;2023-02-13T05:19:58;-1.70;99.90
34829;DHT22;21042;47.620;12.188;2023-02-13T05:22:25;-1.70;99.90
34829;DHT22;21042;47.620;12.188;2023-02-13T05:25:10;-1.70;99.90
34829;DHT22;21042;47.620;12.188;2023-02-13T05:27:37;-1.70;99.90
34829;DHT22;21042;47.620;12.188;2023-02-13T05:30:04;-1.70;99.90
34829;DHT22;21042;47.620;12.188;2023-02-13T05:32:31;-1.70;99.90
34829;DHT22;21042;47.620;12.188;2023-02-13T05:34:58;-1.70;99.90
34829;DHT22;21042;47.620;12.188;2023-02-13T05:37:25;-1.60;99.90
34829;DHT22;21042;47.620;12.188;2023-02-13T05:39:51;-1.60;99.90
34829;DHT22;21042;47.620;12.188;2023-02-13T05:42:18;-1.60;99.90
34829;DHT22;21042;47.620;12.188;2023-02-13T05:44:44;-1.50;99.90
34829;DHT22;21042;47.620;12.188;2023-02-13T05:47:11;-1.50;99.90
34829;DHT22;21042;47.620;12.188;2023-02-13T05:49:38;-1.50;99.90
34829;DHT22;21042;47.620;12.188;2023-02-13T05:52:05;-1.50;99.90
34829;DHT22;21042;47.620;12.188;2023-02-13T05:54:31;-1.50;99.90
34829;DHT22;21042;47.620;12.188;2023-02-13T05:56:58;-1.50;99.90
34829;DHT22;21042;47.620;12.188;2023-02-13T05:59:25;-1.50;99.90
34829;DHT22;21042;47.620;12.188;2023-02-13T06:01:51;-1.60;99.90
34829;DHT22;21042;47.620;12.188;2023-02-13T06:04:19;-1.60;99.90
34829;DHT22;21042;47.620;12.188;2023-02-13T06:06:45;-1.60;99.90
34829;DHT22;21042;47.620;12.188;2023-02-13T06:09:12;-1.60;99.90
34829;DHT22;21042;47.620;12.188;2023-02-13T06:11:39;-1.60;99.90
34829;DHT22;21042;47.620;12.188;2023-02-13T06:14:05;-1.60;99.90
34829;DHT22;21042;47.620;12.188;2023-02-13T06:16:32;-1.50;99.90
34829;DHT22;21042;47.620;12.188;2023-02-13T06:19:00;-1.60;99.90
34829;DHT22;21042;47.620;12.188;2023-02-13T06:21:26;-1.60;99.90
34829;DHT22;21042;47.620;12.188;2023-02-13T06:23:53;-1.50;99.90
34829;DHT22;21042;47.620;12.188;2023-02-13T06:26:20;-1.50;99.90
34829;DHT22;21042;47.620;12.188;2023-02-13T06:28:46;-1.50;99.90
34829;DHT22;21042;47.620;12.188;2023-02-13T06:31:13;-1.50;99.90
34829;DHT22;21042;47.620;12.188;2023-02-13T06:33:40;-1.40;99.90
34829;DHT22;21042;47.620;12.188;2023-02-13T06:36:07;-1.40;99.90
34829;DHT22;21042;47.620;12.188;2023-02-13T06:38:33;-1.40;99.90
34829;DHT22;21042;47.620;12.188;2023-02-13T06:41:00;-1.40;99.90
34829;DHT22;21042;47.620;12.188;2023-02-13T06:43:27;-1.30;99.90
34829;DHT22;21042;47.620;12.188;2023-02-13T06:45:54;-1.30;99.90
34829;DHT22;21042;47.620;12.188;2023-02-13T06:48:21;-1.30;99.90
34829;DHT22;21042;47.620;12.188;2023-02-13T06:50:48;-1.30;99.90
34829;DHT22;21042;47.620;12.188;2023-02-13T06:53:18;-1.30;99.90
34829;DHT22;21042;47.620;12.188;2023-02-13T06:55:54;-1.30;99.90
34829;DHT22;21042;47.620;12.188;2023-02-13T06:58:22;-1.30;99.90
34829;DHT22;21042;47.620;12.188;2023-02-13T07:00:49;-1.30;99.90
34829;DHT22;21042;47.620;12.188;2023-02-13T07:03:17;-1.40;99.90
34829;DHT22;21042;47.620;12.188;2023-02-13T07:05:44;-1.40;99.90
34829;DHT22;21042;47.620;12.188;2023-02-13T07:08:11;-1.30;99.90
34829;DHT22;21042;47.620;12.188;2023-02-13T07:10:40;-1.30;99.90
34829;DHT22;21042;47.620;12.188;2023-02-13T07:13:08;-1.30;99.90
34829;DHT22;21042;47.620;12.188;2023-02-13T07:15:35;-1.20;99.90
34829;DHT22;21042;47.620;12.188;2023-02-13T07:18:03;-1.20;99.90
34829;DHT22;21042;47.620;12.188;2023-02-13T07:20:29;-1.20;99.90
34829;DHT22;21042;47.620;12.188;2023-02-13T07:22:57;-1.20;99.90
34829;DHT22;21042;47.620;12.188;2023-02-13T07:25:25;-1.20;99.90
34829;DHT22;21042;47.620;12.188;2023-02-13T07:27:52;-1.20;99.90
34829;DHT22;21042;47.620;12.188;2023-02-13T07:30:19;-1.20;99.90
34829;DHT22;21042;47.620;12.188;2023-02-13T07:32:46;-1.10;99.90
34829;DHT22;21042;47.620;12.188;2023-02-13T07:35:12;-1.10;99.90
34829;DHT22;21042;47.620;12.188;2023-02-13T07:37:39;-1.10;99.90
34829;DHT22;21042;47.620;12.188;2023-02-13T07:40:06;-1.10;99.90
34829;DHT22;21042;47.620;12.188;2023-02-13T07:42:33;-1.10;99.90
34829;DHT22;21042;47.620;12.188;2023-02-13T07:45:00;-1.00;99.90
34829;DHT22;21042;47.620;12.188;2023-02-13T07:47:27;-0.90;99.90
34829;DHT22;21042;47.620;12.188;2023-02-13T07:49:53;-1.00;99.90
34829;DHT22;21042;47.620;12.188;2023-02-13T07:52:20;-1.30;99.90
34829;DHT22;21042;47.620;12.188;2023-02-13T07:54:47;-1.30;99.90
34829;DHT22;21042;47.620;12.188;2023-02-13T07:57:15;-1.30;99.90
34829;DHT22;21042;47.620;12.188;2023-02-13T07:59:42;-1.20;99.90
34829;DHT22;21042;47.620;12.188;2023-02-13T08:02:13;-1.00;99.90
34829;DHT22;21042;47.620;12.188;2023-02-13T08:04:41;-0.90;99.90
34829;DHT22;21042;47.620;12.188;2023-02-13T08:07:12;-0.80;99.90
34829;DHT22;21042;47.620;12.188;2023-02-13T08:09:39;-0.60;99.90
34829;DHT22;21042;47.620;12.188;2023-02-13T08:12:24;-0.50;99.90
34829;DHT22;21042;47.620;12.188;2023-02-13T08:14:52;-0.40;99.90
34829;DHT22;21042;47.620;12.188;2023-02-13T08:17:19;-0.30;99.90
34829;DHT22;21042;47.620;12.188;2023-02-13T08:19:46;-0.30;99.90
34829;DHT22;21042;47.620;12.188;2023-02-13T08:22:12;-0.30;99.90
34829;DHT22;21042;47.620;12.188;2023-02-13T08:24:39;-0.20;99.90
34829;DHT22;21042;47.620;12.188;2023-02-13T08:27:06;0.00;99.90
34829;DHT22;21042;47.620;12.188;2023-02-13T08:29:32;0.10;99.90
34829;DHT22;21042;47.620;12.188;2023-02-13T08:32:00;0.20;99.90
34829;DHT22;21042;47.620;12.188;2023-02-13T08:34:26;0.40;99.90
34829;DHT22;21042;47.620;12.188;2023-02-13T08:36:53;0.50;99.90
34829;DHT22;21042;47.620;12.188;2023-02-13T08:39:20;0.60;99.90
34829;DHT22;21042;47.620;12.188;2023-02-13T08:41:46;0.70;99.90
34829;DHT22;21042;47.620;12.188;2023-02-13T08:44:13;0.70;99.90
34829;DHT22;21042;47.620;12.188;2023-02-13T08:46:40;0.90;99.90
34829;DHT22;21042;47.620;12.188;2023-02-13T08:49:06;1.00;99.90
34829;DHT22;21042;47.620;12.188;2023-02-13T08:51:33;1.10;99.90
34829;DHT22;21042;47.620;12.188;2023-02-13T08:54:00;1.10;99.90
34829;DHT22;21042;47.620;12.188;2023-02-13T08:56:27;1.20;99.90
34829;DHT22;21042;47.620;12.188;2023-02-13T08:58:53;1.30;99.90
34829;DHT22;21042;47.620;12.188;2023-02-13T09:01:20;1.40;99.90
34829;DHT22;21042;47.620;12.188;2023-02-13T09:03:49;1.50;99.90
34829;DHT22;21042;47.620;12.188;2023-02-13T09:06:16;1.70;99.90
34829;DHT22;21042;47.620;12.188;2023-02-13T09:08:43;1.90;99.90
34829;DHT22;21042;47.620;12.188;2023-02-13T09:11:10;2.00;99.90
34829;DHT22;21042;47.620;12.188;2023-02-13T09:13:36;2.20;99.90
34829;DHT22;21042;47.620;12.188;2023-02-13T09:16:05;2.30;99.90
34829;DHT22;21042;47.620;12.188;2023-02-13T09:18:33;2.40;99.90
34829;DHT22;21042;47.620;12.188;2023-02-13T09:21:05;2.50;99.90
34829;DHT22;21042;47.620;12.188;2023-02-13T09:23:34;2.50;99.90
34829;DHT22;21042;47.620;12.188;2023-02-13T09:26:03;2.60;99.90
34829;DHT22;21042;47.620;12.188;2023-02-13T09:28:31;2.70;99.90
34829;DHT22;21042;47.620;12.188;2023-02-13T09:30:58;2.80;99.90
34829;DHT22;21042;47.620;12.188;2023-02-13T09:33:25;2.80;99.90
34829;DHT22;21042;47.620;12.188;2023-02-13T09:35:52;2.90;99.90
34829;DHT22;21042;47.620;12.188;2023-02-13T09:38:19;3.00;99.90
34829;DHT22;21042;47.620;12.188;2023-02-13T09:40:59;3.00;99.90
34829;DHT22;21042;47.620;12.188;2023-02-13T09:43:30;3.10;99.90
34829;DHT22;21042;47.620;12.188;2023-02-13T09:46:01;3.20;99.90
34829;DHT22;21042;47.620;12.188;2023-02-13T09:48:33;3.20;99.90
34829;DHT22;21042;47.620;12.188;2023-02-13T09:51:03;3.20;99.90
34829;DHT22;21042;47.620;12.188;2023-02-13T09:53:30;3.30;99.90
34829;DHT22;21042;47.620;12.188;2023-02-13T09:56:11;3.30;99.90
34829;DHT22;21042;47.620;12.188;2023-02-13T09:58:46;3.40;99.90
34829;DHT22;21042;47.620;12.188;2023-02-13T10:01:38;3.40;99.90
34829;DHT22;21042;47.620;12.188;2023-02-13T10:15:13;4.10;99.90
34829;DHT22;21042;47.620;12.188;2023-02-13T10:17:44;4.20;99.90
34829;DHT22;21042;47.620;12.188;2023-02-13T10:20:24;4.10;99.90
34829;DHT22;21042;47.620;12.188;2023-02-13T10:23:00;4.30;99.90
34829;DHT22;21042;47.620;12.188;2023-02-13T10:25:40;4.40;99.90
34829;DHT22;21042;47.620;12.188;2023-02-13T10:28:13;4.50;99.90
34829;DHT22;21042;47.620;12.188;2023-02-13T10:30:56;4.60;99.90
34829;DHT22;21042;47.620;12.188;2023-02-13T10:33:28;4.50;99.90
34829;DHT22;21042;47.620;12.188;2023-02-13T10:38:42;4.70;99.90
34829;DHT22;21042;47.620;12.188;2023-02-13T10:44:16;4.70;99.90
34829;DHT22;21042;47.620;12.188;2023-02-13T10:47:00;4.80;99.90
34829;DHT22;21042;47.620;12.188;2023-02-13T10:54:51;5.00;99.90
34829;DHT22;21042;47.620;12.188;2023-02-13T10:57:47;5.20;99.90
34829;DHT22;21042;47.620;12.188;2023-02-13T11:00:38;5.30;99.90
34829;DHT22;21042;47.620;12.188;2023-02-13T11:03:24;5.50;99.90
34829;DHT22;21042;47.620;12.188;2023-02-13T11:05:52;5.60;99.90
34829;DHT22;21042;47.620;12.188;2023-02-13T11:08:39;5.70;99.90
34829;DHT22;21042;47.620;12.188;2023-02-13T11:11:37;5.80;99.90
34829;DHT22;21042;47.620;12.188;2023-02-13T11:14:14;5.90;99.90
34829;DHT22;21042;47.620;12.188;2023-02-13T11:16:57;6.00;99.90
34829;DHT22;21042;47.620;12.188;2023-02-13T11:19:38;6.00;99.90
34829;DHT22;21042;47.620;12.188;2023-02-13T11:22:12;6.00;99.90
34829;DHT22;21042;47.620;12.188;2023-02-13T11:24:48;6.20;99.90
34829;DHT22;21042;47.620;12.188;2023-02-13T11:27:23;6.20;99.90
34829;DHT22;21042;47.620;12.188;2023-02-13T11:29:58;6.30;99.90
34829;DHT22;21042;47.620;12.188;2023-02-13T11:32:27;6.40;99.90
34829;DHT22;21042;47.620;12.188;2023-02-13T11:34:55;6.40;99.90
34829;DHT22;21042;47.620;12.188;2023-02-13T11:39:53;6.60;99.90
34829;DHT22;21042;47.620;12.188;2023-02-13T11:42:23;6.70;99.90
34829;DHT22;21042;47.620;12.188;2023-02-13T11:44:57;6.80;99.90
34829;DHT22;21042;47.620;12.188;2023-02-13T11:47:37;6.80;99.90
34829;DHT22;21042;47.620;12.188;2023-02-13T11:52:56;6.90;99.90
34829;DHT22;21042;47.620;12.188;2023-02-13T11:55:29;7.00;99.90
34829;DHT22;21042;47.620;12.188;2023-02-13T11:58:02;7.00;99.90
34829;DHT22;21042;47.620;12.188;2023-02-13T12:00:35;6.90;99.90
34829;DHT22;21042;47.620;12.188;2023-02-13T12:06:12;6.90;99.90
34829;DHT22;21042;47.620;12.188;2023-02-13T12:08:41;6.90;99.90
34829;DHT22;21042;47.620;12.188;2023-02-13T12:11:38;6.90;99.90
34829;DHT22;21042;47.620;12.188;2023-02-13T12:14:10;7.00;99.90
34829;DHT22;21042;47.620;12.188;2023-02-13T12:16:45;7.00;99.90
34829;DHT22;21042;47.620;12.188;2023-02-13T12:19:27;7.00;99.90
34829;DHT22;21042;47.620;12.188;2023-02-13T12:25:12;7.00;99.90
34829;DHT22;21042;47.620;12.188;2023-02-13T12:28:12;7.10;99.90
34829;DHT22;21042;47.620;12.188;2023-02-13T12:33:41;7.30;99.90
34829;DHT22;21042;47.620;12.188;2023-02-13T12:36:46;7.20;99.90
34829;DHT22;21042;47.620;12.188;2023-02-13T12:39:29;7.30;99.90
34829;DHT22;21042;47.620;12.188;2023-02-13T12:42:40;7.30;99.90
34829;DHT22;21042;47.620;12.188;2023-02-13T12:45:28;7.40;99.90
34829;DHT22;21042;47.620;12.188;2023-02-13T12:53:39;7.40;99.90
34829;DHT22;21042;47.620;12.188;2023-02-13T12:56:50;7.30;99.90
34829;DHT22;21042;47.620;12.188;2023-02-13T12:59:40;7.20;99.90
34829;DHT22;21042;47.620;12.188;2023-02-13T13:02:43;7.20;99.90
34829;DHT22;21042;47.620;12.188;2023-02-13T13:05:12;7.20;99.90
34829;DHT22;21042;47.620;12.188;2023-02-13T13:10:34;7.10;99.90
34829;DHT22;21042;47.620;12.188;2023-02-13T13:19:41;7.00;99.90
34829;DHT22;21042;47.620;12.188;2023-02-13T13:22:31;7.00;99.90
34829;DHT22;21042;47.620;12.188;2023-02-13T13:27:56;7.10;99.90
34829;DHT22;21042;47.620;12.188;2023-02-13T13:30:30;7.00;99.90
34829;DHT22;21042;47.620;12.188;2023-02-13T13:33:17;6.90;99.90
34829;DHT22;21042;47.620;12.188;2023-02-13T13:38:23;6.80;99.90
34829;DHT22;21042;47.620;12.188;2023-02-13T13:41:14;6.90;99.90
34829;DHT22;21042;47.620;12.188;2023-02-13T13:49:22;6.90;99.90
34829;DHT22;21042;47.620;12.188;2023-02-13T13:51:51;6.80;99.90
34829;DHT22;21042;47.620;12.188;2023-02-13T13:54:21;6.80;99.90
34829;DHT22;21042;47.620;12.188;2023-02-13T13:57:04;6.70;99.90
34829;DHT22;21042;47.620;12.188;2023-02-13T14:13:03;6.60;99.90
34829;DHT22;21042;47.620;12.188;2023-02-13T14:18:03;6.50;99.90
34829;DHT22;21042;47.620;12.188;2023-02-13T14:23:16;6.40;99.90
34829;DHT22;21042;47.620;12.188;2023-02-13T14:25:43;6.40;99.90
34829;DHT22;21042;47.620;12.188;2023-02-13T14:28:24;6.40;99.90
34829;DHT22;21042;47.620;12.188;2023-02-13T14:31:03;6.30;99.90
34829;DHT22;21042;47.620;12.188;2023-02-13T14:33:31;6.30;99.90
34829;DHT22;21042;47.620;12.188;2023-02-13T14:35:59;6.30;99.90
34829;DHT22;21042;47.620;12.188;2023-02-13T14:38:26;6.20;99.90
34829;DHT22;21042;47.620;12.188;2023-02-13T14:40:54;6.20;99.90
34829;DHT22;21042;47.620;12.188;2023-02-13T14:43:37;6.20;99.90
34829;DHT22;21042;47.620;12.188;2023-02-13T14:46:21;6.20;99.90
34829;DHT22;21042;47.620;12.188;2023-02-13T14:48:57;6.20;99.90
34829;DHT22;21042;47.620;12.188;2023-02-13T14:51:35;6.00;99.90
34829;DHT22;21042;47.620;12.188;2023-02-13T14:56:51;5.90;99.90
34829;DHT22;21042;47.620;12.188;2023-02-13T14:59:23;5.90;99.90
34829;DHT22;21042;47.620;12.188;2023-02-13T15:01:54;5.90;99.90
34829;DHT22;21042;47.620;12.188;2023-02-13T15:04:39;5.80;99.90
34829;DHT22;21042;47.620;12.188;2023-02-13T15:07:14;5.70;99.90
34829;DHT22;21042;47.620;12.188;2023-02-13T15:09:49;5.60;99.90
34829;DHT22;21042;47.620;12.188;2023-02-13T15:12:28;5.60;99.90
34829;DHT22;21042;47.620;12.188;2023-02-13T15:14:55;5.50;99.90
34829;DHT22;21042;47.620;12.188;2023-02-13T15:17:25;5.50;99.90
34829;DHT22;21042;47.620;12.188;2023-02-13T15:19:55;5.40;99.90
34829;DHT22;21042;47.620;12.188;2023-02-13T15:22:38;5.30;99.90
34829;DHT22;21042;47.620;12.188;2023-02-13T15:25:07;5.30;99.90
34829;DHT22;21042;47.620;12.188;2023-02-13T15:27:42;5.20;99.90
34829;DHT22;21042;47.620;12.188;2023-02-13T15:32:56;5.00;99.90
34829;DHT22;21042;47.620;12.188;2023-02-13T15:35:31;4.90;99.90
34829;DHT22;21042;47.620;12.188;2023-02-13T15:37:59;4.80;99.90
34829;DHT22;21042;47.620;12.188;2023-02-13T15:40:32;4.80;99.90
34829;DHT22;21042;47.620;12.188;2023-02-13T15:43:01;4.70;99.90
34829;DHT22;21042;47.620;12.188;2023-02-13T15:45:27;4.60;99.90
34829;DHT22;21042;47.620;12.188;2023-02-13T15:47:55;4.50;99.90
34829;DHT22;21042;47.620;12.188;2023-02-13T15:50:32;4.40;99.90
34829;DHT22;21042;47.620;12.188;2023-02-13T15:53:02;4.30;99.90
34829;DHT22;21042;47.620;12.188;2023-02-13T15:55:32;4.20;99.90
34829;DHT22;21042;47.620;12.188;2023-02-13T15:58:02;4.00;99.90
34829;DHT22;21042;47.620;12.188;2023-02-13T16:00:36;3.90;99.90
34829;DHT22;21042;47.620;12.188;2023-02-13T16:03:10;3.80;99.90
34829;DHT22;21042;47.620;12.188;2023-02-13T16:05:39;3.70;99.90
34829;DHT22;21042;47.620;12.188;2023-02-13T16:08:26;3.60;99.90
34829;DHT22;21042;47.620;12.188;2023-02-13T16:11:22;3.60;99.90
34829;DHT22;21042;47.620;12.188;2023-02-13T16:19:25;3.40;99.90
34829;DHT22;21042;47.620;12.188;2023-02-13T16:21:52;3.30;99.90
34829;DHT22;21042;47.620;12.188;2023-02-13T16:24:20;3.20;99.90
34829;DHT22;21042;47.620;12.188;2023-02-13T16:26:48;3.20;99.90
34829;DHT22;21042;47.620;12.188;2023-02-13T16:29:18;3.20;99.90
34829;DHT22;21042;47.620;12.188;2023-02-13T16:31:47;3.20;99.90
34829;DHT22;21042;47.620;12.188;2023-02-13T16:34:26;3.10;99.90
34829;DHT22;21042;47.620;12.188;2023-02-13T16:36:53;3.00;99.90
34829;DHT22;21042;47.620;12.188;2023-02-13T16:39:21;3.00;99.90
34829;DHT22;21042;47.620;12.188;2023-02-13T16:41:52;2.90;99.90
34829;DHT22;21042;47.620;12.188;2023-02-13T16:44:28;2.90;99.90
34829;DHT22;21042;47.620;12.188;2023-02-13T16:47:00;2.80;99.90
34829;DHT22;21042;47.620;12.188;2023-02-13T16:49:29;2.80;99.90
34829;DHT22;21042;47.620;12.188;2023-02-13T16:52:18;2.70;99.90
34829;DHT22;21042;47.620;12.188;2023-02-13T16:54:59;2.70;99.90
34829;DHT22;21042;47.620;12.188;2023-02-13T16:57:34;2.70;99.90
34829;DHT22;21042;47.620;12.188;2023-02-13T17:00:19;2.60;99.90
34829;DHT22;21042;47.620;12.188;2023-02-13T17:02:50;2.50;99.90
34829;DHT22;21042;47.620;12.188;2023-02-13T17:05:27;2.50;99.90
34829;DHT22;21042;47.620;12.188;2023-02-13T17:07:55;2.40;99.90
34829;DHT22;21042;47.620;12.188;2023-02-13T17:10:37;2.40;99.90
34829;DHT22;21042;47.620;12.188;2023-02-13T17:15:34;2.20;99.90
34829;DHT22;21042;47.620;12.188;2023-02-13T17:18:00;2.20;99.90
34829;DHT22;21042;47.620;12.188;2023-02-13T17:20:33;2.10;99.90
34829;DHT22;21042;47.620;12.188;2023-02-13T17:23:02;2.10;99.90
34829;DHT22;21042;47.620;12.188;2023-02-13T17:25:35;2.00;99.90
34829;DHT22;21042;47.620;12.188;2023-02-13T17:28:13;1.90;99.90
34829;DHT22;21042;47.620;12.188;2023-02-13T17:30:41;1.80;99.90
34829;DHT22;21042;47.620;12.188;2023-02-13T17:33:29;1.80;99.90
34829;DHT22;21042;47.620;12.188;2023-02-13T17:35:56;1.70;99.90
34829;DHT22;21042;47.620;12.188;2023-02-13T17:38:23;1.70;99.90
34829;DHT22;21042;47.620;12.188;2023-02-13T17:40:50;1.70;99.90
34829;DHT22;21042;47.620;12.188;2023-02-13T17:43:18;1.70;99.90
34829;DHT22;21042;47.620;12.188;2023-02-13T17:45:45;1.60;99.90
34829;DHT22;21042;47.620;12.188;2023-02-13T17:48:12;1.60;99.90
34829;DHT22;21042;47.620;12.188;2023-02-13T17:50:39;1.60;99.90
34829;DHT22;21042;47.620;12.188;2023-02-13T17:53:20;1.50;99.90
34829;DHT22;21042;47.620;12.188;2023-02-13T17:55:49;1.50;99.90